sensor_id;sensor_type;location;lat;lon;timestamp;temperature;humidity
55492;DHT22;41354;52.990;6.878;2022-07-11T00:01:59;15.70;99.90
55492;DHT22;41354;52.990;6.878;2022-07-11T00:04:28;15.70;99.90
55492;DHT22;41354;52.990;6.878;2022-07-11T00:06:53;15.70;99.90
55492;DHT22;41354;52.990;6.878;2022-07-11T00:09:19;15.70;99.90
55492;DHT22;41354;52.990;6.878;2022-07-11T00:11:44;15.70;99.90
55492;DHT22;41354;52.990;6.878;2022-07-11T00:14:10;15.70;99.90
55492;DHT22;41354;52.990;6.878;2022-07-11T00:16:35;15.70;99.90
55492;DHT22;41354;52.990;6.878;2022-07-11T00:19:01;15.70;99.90
55492;DHT22;41354;52.990;6.878;2022-07-11T00:21:26;15.70;99.90
55492;DHT22;41354;52.990;6.878;2022-07-11T00:23:52;15.70;99.90
55492;DHT22;41354;52.990;6.878;2022-07-11T00:26:18;15.70;99.90
55492;DHT22;41354;52.990;6.878;2022-07-11T00:28:43;15.70;99.90
55492;DHT22;41354;52.990;6.878;2022-07-11T00:31:09;15.70;99.90
55492;DHT22;41354;52.990;6.878;2022-07-11T00:33:35;15.70;99.90
55492;DHT22;41354;52.990;6.878;2022-07-11T00:36:01;15.70;99.90
55492;DHT22;41354;52.990;6.878;2022-07-11T00:38:26;15.70;99.90
55492;DHT22;41354;52.990;6.878;2022-07-11T00:40:52;15.70;99.90
55492;DHT22;41354;52.990;6.878;2022-07-11T00:43:17;15.70;99.90
55492;DHT22;41354;52.990;6.878;2022-07-11T00:45:47;15.60;99.90
55492;DHT22;41354;52.990;6.878;2022-07-11T00:48:13;15.70;99.90
55492;DHT22;41354;52.990;6.878;2022-07-11T00:50:38;15.70;99.90
55492;DHT22;41354;52.990;6.878;2022-07-11T00:53:04;15.70;99.90
55492;DHT22;41354;52.990;6.878;2022-07-11T00:55:30;15.60;99.90
55492;DHT22;41354;52.990;6.878;2022-07-11T00:57:55;15.70;99.90
55492;DHT22;41354;52.990;6.878;2022-07-11T01:00:21;15.70;99.90
55492;DHT22;41354;52.990;6.878;2022-07-11T01:02:47;15.70;99.90
55492;DHT22;41354;52.990;6.878;2022-07-11T01:05:13;15.60;99.90
55492;DHT22;41354;52.990;6.878;2022-07-11T01:07:38;15.60;99.90
55492;DHT22;41354;52.990;6.878;2022-07-11T01:10:04;15.60;99.90
55492;DHT22;41354;52.990;6.878;2022-07-11T01:12:31;15.70;99.90
55492;DHT22;41354;52.990;6.878;2022-07-11T01:14:57;15.70;99.90
55492;DHT22;41354;52.990;6.878;2022-07-11T01:17:25;15.60;99.90
55492;DHT22;41354;52.990;6.878;2022-07-11T01:19:51;15.60;99.90
55492;DHT22;41354;52.990;6.878;2022-07-11T01:22:21;15.60;99.90
55492;DHT22;41354;52.990;6.878;2022-07-11T01:24:48;15.60;99.90
55492;DHT22;41354;52.990;6.878;2022-07-11T01:27:15;15.50;99.90
55492;DHT22;41354;52.990;6.878;2022-07-11T01:29:41;15.50;99.90
55492;DHT22;41354;52.990;6.878;2022-07-11T01:32:07;15.50;99.90
55492;DHT22;41354;52.990;6.878;2022-07-11T01:34:34;15.40;99.90
55492;DHT22;41354;52.990;6.878;2022-07-11T01:37:00;15.40;99.90
55492;DHT22;41354;52.990;6.878;2022-07-11T01:39:25;15.40;99.90
55492;DHT22;41354;52.990;6.878;2022-07-11T01:41:57;15.40;99.90
55492;DHT22;41354;52.990;6.878;2022-07-11T01:44:23;15.40;99.90
55492;DHT22;41354;52.990;6.878;2022-07-11T01:46:49;15.40;99.90
55492;DHT22;41354;52.990;6.878;2022-07-11T01:49:15;15.40;99.90
55492;DHT22;41354;52.990;6.878;2022-07-11T01:51:41;15.40;99.90
55492;DHT22;41354;52.990;6.878;2022-07-11T01:54:07;15.40;99.90
55492;DHT22;41354;52.990;6.878;2022-07-11T01:56:33;15.40;99.90
55492;DHT22;41354;52.990;6.878;2022-07-11T01:58:59;15.40;99.90
55492;DHT22;41354;52.990;6.878;2022-07-11T02:01:24;15.40;99.90
55492;DHT22;41354;52.990;6.878;2022-07-11T02:03:50;15.40;99.90
55492;DHT22;41354;52.990;6.878;2022-07-11T02:06:16;15.40;99.90
55492;DHT22;41354;52.990;6.878;2022-07-11T02:08:42;15.30;99.90
55492;DHT22;41354;52.990;6.878;2022-07-11T02:11:07;15.30;99.90
55492;DHT22;41354;52.990;6.878;2022-07-11T02:13:33;15.30;99.90
55492;DHT22;41354;52.990;6.878;2022-07-11T02:15:59;15.30;99.90
55492;DHT22;41354;52.990;6.878;2022-07-11T02:18:24;15.30;99.90
55492;DHT22;41354;52.990;6.878;2022-07-11T02:20:50;15.30;99.90
55492;DHT22;41354;52.990;6.878;2022-07-11T02:23:17;15.30;99.90
55492;DHT22;41354;52.990;6.878;2022-07-11T02:25:43;15.30;99.90
55492;DHT22;41354;52.990;6.878;2022-07-11T02:28:10;15.30;99.90
55492;DHT22;41354;52.990;6.878;2022-07-11T02:30:42;15.30;99.90
55492;DHT22;41354;52.990;6.878;2022-07-11T02:33:08;15.30;99.90
55492;DHT22;41354;52.990;6.878;2022-07-11T02:35:36;15.30;99.90
55492;DHT22;41354;52.990;6.878;2022-07-11T02:38:02;15.30;99.90
55492;DHT22;41354;52.990;6.878;2022-07-11T02:40:28;15.30;99.90
55492;DHT22;41354;52.990;6.878;2022-07-11T02:42:54;15.30;99.90
55492;DHT22;41354;52.990;6.878;2022-07-11T02:45:19;15.30;99.90
55492;DHT22;41354;52.990;6.878;2022-07-11T02:47:45;15.30;99.90
55492;DHT22;41354;52.990;6.878;2022-07-11T02:50:12;15.30;99.90
55492;DHT22;41354;52.990;6.878;2022-07-11T02:52:40;15.30;99.90
55492;DHT22;41354;52.990;6.878;2022-07-11T02:55:08;15.30;99.90
55492;DHT22;41354;52.990;6.878;2022-07-11T02:57:35;15.30;99.90
55492;DHT22;41354;52.990;6.878;2022-07-11T03:00:02;15.30;99.90
55492;DHT22;41354;52.990;6.878;2022-07-11T03:02:28;15.30;99.90
55492;DHT22;41354;52.990;6.878;2022-07-11T03:04:53;15.30;99.90
55492;DHT22;41354;52.990;6.878;2022-07-11T03:07:19;15.30;99.90
55492;DHT22;41354;52.990;6.878;2022-07-11T03:09:45;15.30;99.90
55492;DHT22;41354;52.990;6.878;2022-07-11T03:12:10;15.30;99.90
55492;DHT22;41354;52.990;6.878;2022-07-11T03:14:36;15.30;99.90
55492;DHT22;41354;52.990;6.878;2022-07-11T03:17:01;15.30;99.90
55492;DHT22;41354;52.990;6.878;2022-07-11T03:19:27;15.30;99.90
55492;DHT22;41354;52.990;6.878;2022-07-11T03:21:52;15.30;99.90
55492;DHT22;41354;52.990;6.878;2022-07-11T03:24:18;15.30;99.90
55492;DHT22;41354;52.990;6.878;2022-07-11T03:26:44;15.20;99.90
55492;DHT22;41354;52.990;6.878;2022-07-11T03:29:09;15.20;99.90
55492;DHT22;41354;52.990;6.878;2022-07-11T03:31:35;15.20;99.90
55492;DHT22;41354;52.990;6.878;2022-07-11T03:34:00;15.20;99.90
55492;DHT22;41354;52.990;6.878;2022-07-11T03:36:26;15.20;99.90
55492;DHT22;41354;52.990;6.878;2022-07-11T03:38:52;15.20;99.90
55492;DHT22;41354;52.990;6.878;2022-07-11T03:41:17;15.20;99.90
55492;DHT22;41354;52.990;6.878;2022-07-11T03:43:43;15.20;99.90
55492;DHT22;41354;52.990;6.878;2022-07-11T03:46:09;15.20;99.90
55492;DHT22;41354;52.990;6.878;2022-07-11T03:48:34;15.30;99.90
55492;DHT22;41354;52.990;6.878;2022-07-11T03:51:00;15.20;99.90
55492;DHT22;41354;52.990;6.878;2022-07-11T03:53:26;15.20;99.90
55492;DHT22;41354;52.990;6.878;2022-07-11T03:55:51;15.20;99.90
55492;DHT22;41354;52.990;6.878;2022-07-11T03:58:17;15.20;99.90
55492;DHT22;41354;52.990;6.878;2022-07-11T04:00:42;15.20;99.90
55492;DHT22;41354;52.990;6.878;2022-07-11T04:03:08;15.30;99.90
55492;DHT22;41354;52.990;6.878;2022-07-11T04:05:33;15.20;99.90
55492;DHT22;41354;52.990;6.878;2022-07-11T04:07:59;15.30;99.90
55492;DHT22;41354;52.990;6.878;2022-07-11T04:10:24;15.30;99.90
55492;DHT22;41354;52.990;6.878;2022-07-11T04:12:50;15.30;99.90
55492;DHT22;41354;52.990;6.878;2022-07-11T04:15:15;15.30;99.90
55492;DHT22;41354;52.990;6.878;2022-07-11T04:17:41;15.30;99.90
55492;DHT22;41354;52.990;6.878;2022-07-11T04:20:07;15.30;99.90
55492;DHT22;41354;52.990;6.878;2022-07-11T04:22:33;15.30;99.90
55492;DHT22;41354;52.990;6.878;2022-07-11T04:24:59;15.30;99.90
55492;DHT22;41354;52.990;6.878;2022-07-11T04:27:24;15.30;99.90
55492;DHT22;41354;52.990;6.878;2022-07-11T04:29:51;15.30;99.90
55492;DHT22;41354;52.990;6.878;2022-07-11T04:32:16;15.40;99.90
55492;DHT22;41354;52.990;6.878;2022-07-11T04:34:42;15.30;99.90
55492;DHT22;41354;52.990;6.878;2022-07-11T04:37:08;15.30;99.90
55492;DHT22;41354;52.990;6.878;2022-07-11T04:39:33;15.40;99.90
55492;DHT22;41354;52.990;6.878;2022-07-11T04:41:59;15.40;99.90
55492;DHT22;41354;52.990;6.878;2022-07-11T04:44:27;15.40;99.90
55492;DHT22;41354;52.990;6.878;2022-07-11T04:46:52;15.50;99.90
55492;DHT22;41354;52.990;6.878;2022-07-11T04:49:18;15.50;99.90
55492;DHT22;41354;52.990;6.878;2022-07-11T04:51:44;15.60;99.90
55492;DHT22;41354;52.990;6.878;2022-07-11T04:54:10;15.60;99.90
55492;DHT22;41354;52.990;6.878;2022-07-11T04:56:35;15.70;99.90
55492;DHT22;41354;52.990;6.878;2022-07-11T04:59:02;15.70;99.90
55492;DHT22;41354;52.990;6.878;2022-07-11T05:01:28;15.80;99.90
55492;DHT22;41354;52.990;6.878;2022-07-11T05:03:55;15.90;99.90
55492;DHT22;41354;52.990;6.878;2022-07-11T05:06:20;15.90;99.90
55492;DHT22;41354;52.990;6.878;2022-07-11T05:08:46;15.90;99.90
55492;DHT22;41354;52.990;6.878;2022-07-11T05:11:11;15.90;99.90
55492;DHT22;41354;52.990;6.878;2022-07-11T05:13:37;16.00;99.90
55492;DHT22;41354;52.990;6.878;2022-07-11T05:16:03;16.00;99.90
55492;DHT22;41354;52.990;6.878;2022-07-11T05:18:29;16.10;99.90
55492;DHT22;41354;52.990;6.878;2022-07-11T05:20:54;16.10;99.90
55492;DHT22;41354;52.990;6.878;2022-07-11T05:23:21;16.10;99.90
55492;DHT22;41354;52.990;6.878;2022-07-11T05:25:46;16.20;99.90
55492;DHT22;41354;52.990;6.878;2022-07-11T05:28:12;16.20;99.90
55492;DHT22;41354;52.990;6.878;2022-07-11T05:30:37;16.20;99.90
55492;DHT22;41354;52.990;6.878;2022-07-11T05:33:03;16.20;99.90
55492;DHT22;41354;52.990;6.878;2022-07-11T05:35:28;16.10;99.90
55492;DHT22;41354;52.990;6.878;2022-07-11T05:37:54;16.10;99.90
55492;DHT22;41354;52.990;6.878;2022-07-11T05:40:19;16.10;99.90
55492;DHT22;41354;52.990;6.878;2022-07-11T05:42:45;16.00;99.90
55492;DHT22;41354;52.990;6.878;2022-07-11T05:45:11;16.00;99.90
55492;DHT22;41354;52.990;6.878;2022-07-11T05:47:37;16.00;99.90
55492;DHT22;41354;52.990;6.878;2022-07-11T05:50:03;16.00;99.90
55492;DHT22;41354;52.990;6.878;2022-07-11T05:52:28;16.00;99.90
55492;DHT22;41354;52.990;6.878;2022-07-11T05:54:54;16.00;99.90
55492;DHT22;41354;52.990;6.878;2022-07-11T05:57:20;16.00;99.90
55492;DHT22;41354;52.990;6.878;2022-07-11T05:59:45;16.20;99.90
55492;DHT22;41354;52.990;6.878;2022-07-11T06:02:12;16.30;99.90
55492;DHT22;41354;52.990;6.878;2022-07-11T06:04:37;16.50;99.90
55492;DHT22;41354;52.990;6.878;2022-07-11T06:07:03;16.50;99.90
55492;DHT22;41354;52.990;6.878;2022-07-11T06:09:29;16.50;99.90
55492;DHT22;41354;52.990;6.878;2022-07-11T06:11:55;16.70;99.90
55492;DHT22;41354;52.990;6.878;2022-07-11T06:14:21;16.70;99.90
55492;DHT22;41354;52.990;6.878;2022-07-11T06:16:47;16.90;99.90
55492;DHT22;41354;52.990;6.878;2022-07-11T06:19:14;17.10;99.90
55492;DHT22;41354;52.990;6.878;2022-07-11T06:21:40;17.20;99.90
55492;DHT22;41354;52.990;6.878;2022-07-11T06:24:06;17.30;99.90
55492;DHT22;41354;52.990;6.878;2022-07-11T06:26:31;17.40;99.90
55492;DHT22;41354;52.990;6.878;2022-07-11T06:28:57;17.60;99.90
55492;DHT22;41354;52.990;6.878;2022-07-11T06:31:23;17.60;99.90
55492;DHT22;41354;52.990;6.878;2022-07-11T06:33:49;17.60;99.90
55492;DHT22;41354;52.990;6.878;2022-07-11T06:36:20;17.60;99.90
55492;DHT22;41354;52.990;6.878;2022-07-11T06:38:49;17.40;99.90
55492;DHT22;41354;52.990;6.878;2022-07-11T06:41:16;17.30;99.90
55492;DHT22;41354;52.990;6.878;2022-07-11T06:43:43;17.20;99.90
55492;DHT22;41354;52.990;6.878;2022-07-11T06:46:09;17.20;99.90
55492;DHT22;41354;52.990;6.878;2022-07-11T06:48:35;17.20;99.90
55492;DHT22;41354;52.990;6.878;2022-07-11T06:51:01;17.20;99.90
55492;DHT22;41354;52.990;6.878;2022-07-11T06:53:26;17.20;99.90
55492;DHT22;41354;52.990;6.878;2022-07-11T06:55:52;17.20;99.90
55492;DHT22;41354;52.990;6.878;2022-07-11T06:58:18;17.20;99.90
55492;DHT22;41354;52.990;6.878;2022-07-11T07:01:00;17.30;99.90
55492;DHT22;41354;52.990;6.878;2022-07-11T07:03:27;17.30;99.90
55492;DHT22;41354;52.990;6.878;2022-07-11T07:05:54;17.30;99.90
55492;DHT22;41354;52.990;6.878;2022-07-11T07:08:28;17.40;99.90
55492;DHT22;41354;52.990;6.878;2022-07-11T07:10:55;17.50;99.90
55492;DHT22;41354;52.990;6.878;2022-07-11T07:13:21;17.90;99.90
55492;DHT22;41354;52.990;6.878;2022-07-11T07:15:51;18.60;99.90
55492;DHT22;41354;52.990;6.878;2022-07-11T07:18:16;19.00;99.90
55492;DHT22;41354;52.990;6.878;2022-07-11T07:20:42;19.00;99.90
55492;DHT22;41354;52.990;6.878;2022-07-11T07:23:07;19.20;99.90
55492;DHT22;41354;52.990;6.878;2022-07-11T07:25:34;19.40;99.90
55492;DHT22;41354;52.990;6.878;2022-07-11T07:27:59;19.60;99.90
55492;DHT22;41354;52.990;6.878;2022-07-11T07:30:25;19.70;99.90
55492;DHT22;41354;52.990;6.878;2022-07-11T07:32:50;19.70;99.90
55492;DHT22;41354;52.990;6.878;2022-07-11T07:35:16;19.70;99.90
55492;DHT22;41354;52.990;6.878;2022-07-11T07:37:42;19.60;99.90
55492;DHT22;41354;52.990;6.878;2022-07-11T07:40:08;19.50;99.90
55492;DHT22;41354;52.990;6.878;2022-07-11T07:42:34;19.40;99.90
55492;DHT22;41354;52.990;6.878;2022-07-11T07:44:59;19.30;99.90
55492;DHT22;41354;52.990;6.878;2022-07-11T07:47:25;19.20;99.90
55492;DHT22;41354;52.990;6.878;2022-07-11T07:49:51;19.20;99.90
55492;DHT22;41354;52.990;6.878;2022-07-11T07:52:16;19.20;99.90
55492;DHT22;41354;52.990;6.878;2022-07-11T07:54:42;19.10;99.90
55492;DHT22;41354;52.990;6.878;2022-07-11T07:57:08;19.00;99.90
55492;DHT22;41354;52.990;6.878;2022-07-11T07:59:33;18.90;99.90
55492;DHT22;41354;52.990;6.878;2022-07-11T08:01:59;18.70;99.90
55492;DHT22;41354;52.990;6.878;2022-07-11T08:04:24;18.60;99.90
55492;DHT22;41354;52.990;6.878;2022-07-11T08:06:50;18.50;99.90
55492;DHT22;41354;52.990;6.878;2022-07-11T08:09:16;18.40;99.90
55492;DHT22;41354;52.990;6.878;2022-07-11T08:11:41;18.40;99.90
55492;DHT22;41354;52.990;6.878;2022-07-11T08:14:07;18.50;99.90
55492;DHT22;41354;52.990;6.878;2022-07-11T08:16:34;18.50;99.90
55492;DHT22;41354;52.990;6.878;2022-07-11T08:19:01;18.50;99.90
55492;DHT22;41354;52.990;6.878;2022-07-11T08:21:28;18.50;99.90
55492;DHT22;41354;52.990;6.878;2022-07-11T08:23:54;18.40;99.90
55492;DHT22;41354;52.990;6.878;2022-07-11T08:26:20;18.40;99.90
55492;DHT22;41354;52.990;6.878;2022-07-11T08:28:46;18.40;99.90
55492;DHT22;41354;52.990;6.878;2022-07-11T08:31:11;18.40;99.90
55492;DHT22;41354;52.990;6.878;2022-07-11T08:33:37;18.40;99.90
55492;DHT22;41354;52.990;6.878;2022-07-11T08:36:03;18.40;99.90
55492;DHT22;41354;52.990;6.878;2022-07-11T08:38:29;18.40;99.90
55492;DHT22;41354;52.990;6.878;2022-07-11T08:40:54;18.40;99.90
55492;DHT22;41354;52.990;6.878;2022-07-11T08:43:27;18.40;99.90
55492;DHT22;41354;52.990;6.878;2022-07-11T08:45:54;18.50;99.90
55492;DHT22;41354;52.990;6.878;2022-07-11T08:48:21;18.50;99.90
55492;DHT22;41354;52.990;6.878;2022-07-11T08:50:49;18.70;99.90
55492;DHT22;41354;52.990;6.878;2022-07-11T08:53:15;18.80;99.90
55492;DHT22;41354;52.990;6.878;2022-07-11T08:55:41;18.80;99.90
55492;DHT22;41354;52.990;6.878;2022-07-11T08:58:08;18.80;99.90
55492;DHT22;41354;52.990;6.878;2022-07-11T09:00:34;18.70;99.90
55492;DHT22;41354;52.990;6.878;2022-07-11T09:03:02;18.80;99.90
55492;DHT22;41354;52.990;6.878;2022-07-11T09:05:28;18.90;99.90
55492;DHT22;41354;52.990;6.878;2022-07-11T09:07:54;19.10;99.90
55492;DHT22;41354;52.990;6.878;2022-07-11T09:10:20;19.40;99.90
55492;DHT22;41354;52.990;6.878;2022-07-11T09:13:15;19.50;99.90
55492;DHT22;41354;52.990;6.878;2022-07-11T09:15:44;19.70;99.90
55492;DHT22;41354;52.990;6.878;2022-07-11T09:23:44;19.90;99.90
55492;DHT22;41354;52.990;6.878;2022-07-11T09:26:30;20.00;99.90
55492;DHT22;41354;52.990;6.878;2022-07-11T09:29:03;19.90;99.90
55492;DHT22;41354;52.990;6.878;2022-07-11T09:31:31;19.70;99.90
55492;DHT22;41354;52.990;6.878;2022-07-11T09:34:02;19.40;99.90
55492;DHT22;41354;52.990;6.878;2022-07-11T09:36:40;19.20;99.90
55492;DHT22;41354;52.990;6.878;2022-07-11T09:39:08;19.10;99.90
55492;DHT22;41354;52.990;6.878;2022-07-11T09:41:35;19.20;99.90
55492;DHT22;41354;52.990;6.878;2022-07-11T09:44:18;19.30;99.90
55492;DHT22;41354;52.990;6.878;2022-07-11T09:46:47;19.50;99.90
55492;DHT22;41354;52.990;6.878;2022-07-11T09:49:15;19.60;99.90
55492;DHT22;41354;52.990;6.878;2022-07-11T09:51:41;19.70;99.90
55492;DHT22;41354;52.990;6.878;2022-07-11T09:54:08;19.90;99.90
55492;DHT22;41354;52.990;6.878;2022-07-11T09:59:04;19.80;99.90
55492;DHT22;41354;52.990;6.878;2022-07-11T10:01:31;19.70;99.90
55492;DHT22;41354;52.990;6.878;2022-07-11T10:03:57;19.60;99.90
55492;DHT22;41354;52.990;6.878;2022-07-11T10:06:23;19.40;99.90
55492;DHT22;41354;52.990;6.878;2022-07-11T10:08:51;19.30;99.90
55492;DHT22;41354;52.990;6.878;2022-07-11T10:11:16;19.50;99.90
55492;DHT22;41354;52.990;6.878;2022-07-11T10:13:43;19.60;99.90
55492;DHT22;41354;52.990;6.878;2022-07-11T10:16:32;19.60;99.90
55492;DHT22;41354;52.990;6.878;2022-07-11T10:19:21;19.80;99.90
55492;DHT22;41354;52.990;6.878;2022-07-11T10:30:46;20.10;99.90
55492;DHT22;41354;52.990;6.878;2022-07-11T10:33:12;20.30;99.90
55492;DHT22;41354;52.990;6.878;2022-07-11T10:35:47;20.40;99.90
55492;DHT22;41354;52.990;6.878;2022-07-11T10:38:13;20.50;99.90
55492;DHT22;41354;52.990;6.878;2022-07-11T10:40:45;20.60;99.90
55492;DHT22;41354;52.990;6.878;2022-07-11T10:43:14;20.60;99.90
55492;DHT22;41354;52.990;6.878;2022-07-11T10:45:50;20.60;99.90
55492;DHT22;41354;52.990;6.878;2022-07-11T10:48:17;20.50;99.90
55492;DHT22;41354;52.990;6.878;2022-07-11T10:50:44;20.60;99.90
55492;DHT22;41354;52.990;6.878;2022-07-11T10:53:10;20.60;99.90
55492;DHT22;41354;52.990;6.878;2022-07-11T10:55:44;20.60;99.90
55492;DHT22;41354;52.990;6.878;2022-07-11T10:58:17;20.60;99.90
55492;DHT22;41354;52.990;6.878;2022-07-11T11:00:45;20.60;99.90
55492;DHT22;41354;52.990;6.878;2022-07-11T11:03:11;20.60;99.90
55492;DHT22;41354;52.990;6.878;2022-07-11T11:11:00;21.00;99.90
55492;DHT22;41354;52.990;6.878;2022-07-11T11:13:26;21.10;99.90
55492;DHT22;41354;52.990;6.878;2022-07-11T11:15:53;21.20;99.90
55492;DHT22;41354;52.990;6.878;2022-07-11T11:23:43;20.70;99.90
55492;DHT22;41354;52.990;6.878;2022-07-11T11:26:20;20.70;99.90
55492;DHT22;41354;52.990;6.878;2022-07-11T11:28:56;20.80;99.90
55492;DHT22;41354;52.990;6.878;2022-07-11T11:31:22;21.00;99.90
55492;DHT22;41354;52.990;6.878;2022-07-11T11:33:48;21.00;99.90
55492;DHT22;41354;52.990;6.878;2022-07-11T11:36:17;21.00;99.90
55492;DHT22;41354;52.990;6.878;2022-07-11T11:38:43;21.00;99.90
55492;DHT22;41354;52.990;6.878;2022-07-11T11:41:09;21.10;99.90
55492;DHT22;41354;52.990;6.878;2022-07-11T11:43:36;21.30;99.90
55492;DHT22;41354;52.990;6.878;2022-07-11T11:46:02;21.50;99.90
55492;DHT22;41354;52.990;6.878;2022-07-11T11:48:29;21.50;99.90
55492;DHT22;41354;52.990;6.878;2022-07-11T11:51:05;21.50;99.90
55492;DHT22;41354;52.990;6.878;2022-07-11T11:53:43;21.50;99.90
55492;DHT22;41354;52.990;6.878;2022-07-11T11:56:16;21.40;99.90
55492;DHT22;41354;52.990;6.878;2022-07-11T11:58:43;21.30;99.90
55492;DHT22;41354;52.990;6.878;2022-07-11T12:01:13;21.00;99.90
55492;DHT22;41354;52.990;6.878;2022-07-11T12:03:58;21.00;99.90
55492;DHT22;41354;52.990;6.878;2022-07-11T12:06:27;21.20;99.90
55492;DHT22;41354;52.990;6.878;2022-07-11T12:09:03;21.40;99.90
55492;DHT22;41354;52.990;6.878;2022-07-11T12:11:30;21.40;99.90
55492;DHT22;41354;52.990;6.878;2022-07-11T12:14:06;21.30;99.90
55492;DHT22;41354;52.990;6.878;2022-07-11T12:16:33;21.20;99.90
55492;DHT22;41354;52.990;6.878;2022-07-11T12:19:22;21.30;99.90
55492;DHT22;41354;52.990;6.878;2022-07-11T12:21:50;21.40;99.90
55492;DHT22;41354;52.990;6.878;2022-07-11T12:24:18;21.40;99.90
55492;DHT22;41354;52.990;6.878;2022-07-11T12:26:46;21.20;99.90
55492;DHT22;41354;52.990;6.878;2022-07-11T12:29:17;21.10;99.90
55492;DHT22;41354;52.990;6.878;2022-07-11T12:32:10;21.30;99.90
55492;DHT22;41354;52.990;6.878;2022-07-11T12:37:07;21.30;99.90
55492;DHT22;41354;52.990;6.878;2022-07-11T12:39:35;21.20;99.90
55492;DHT22;41354;52.990;6.878;2022-07-11T12:45:03;20.80;99.90
55492;DHT22;41354;52.990;6.878;2022-07-11T12:47:47;20.90;99.90
55492;DHT22;41354;52.990;6.878;2022-07-11T12:50:15;21.20;99.90
55492;DHT22;41354;52.990;6.878;2022-07-11T12:52:43;21.40;99.90
55492;DHT22;41354;52.990;6.878;2022-07-11T12:58:07;21.50;99.90
55492;DHT22;41354;52.990;6.878;2022-07-11T13:00:34;21.50;99.90
55492;DHT22;41354;52.990;6.878;2022-07-11T13:03:05;21.40;99.90
55492;DHT22;41354;52.990;6.878;2022-07-11T13:05:50;21.40;99.90
55492;DHT22;41354;52.990;6.878;2022-07-11T13:08:25;21.40;99.90
55492;DHT22;41354;52.990;6.878;2022-07-11T13:13:37;21.10;99.90
55492;DHT22;41354;52.990;6.878;2022-07-11T13:16:03;21.00;99.90
55492;DHT22;41354;52.990;6.878;2022-07-11T13:18:30;21.00;99.90
55492;DHT22;41354;52.990;6.878;2022-07-11T13:20:57;21.00;99.90
55492;DHT22;41354;52.990;6.878;2022-07-11T13:23:23;21.00;99.90
55492;DHT22;41354;52.990;6.878;2022-07-11T13:25:48;20.90;99.90
55492;DHT22;41354;52.990;6.878;2022-07-11T13:28:15;21.00;99.90
55492;DHT22;41354;52.990;6.878;2022-07-11T13:30:40;21.00;99.90
55492;DHT22;41354;52.990;6.878;2022-07-11T13:33:06;21.10;99.90
55492;DHT22;41354;52.990;6.878;2022-07-11T13:35:32;21.10;99.90
55492;DHT22;41354;52.990;6.878;2022-07-11T13:37:58;21.20;99.90
55492;DHT22;41354;52.990;6.878;2022-07-11T13:40:23;21.30;99.90
55492;DHT22;41354;52.990;6.878;2022-07-11T13:42:50;21.50;99.90
55492;DHT22;41354;52.990;6.878;2022-07-11T13:45:19;21.70;99.90
55492;DHT22;41354;52.990;6.878;2022-07-11T13:47:45;21.80;99.90
55492;DHT22;41354;52.990;6.878;2022-07-11T13:50:13;21.70;99.90
55492;DHT22;41354;52.990;6.878;2022-07-11T13:52:38;21.50;99.90
55492;DHT22;41354;52.990;6.878;2022-07-11T13:55:05;21.20;99.90
55492;DHT22;41354;52.990;6.878;2022-07-11T13:57:31;21.10;99.90
55492;DHT22;41354;52.990;6.878;2022-07-11T13:59:57;21.10;99.90
55492;DHT22;41354;52.990;6.878;2022-07-11T14:02:23;21.20;99.90
55492;DHT22;41354;52.990;6.878;2022-07-11T14:04:50;21.20;99.90
55492;DHT22;41354;52.990;6.878;2022-07-11T14:07:15;21.20;99.90
55492;DHT22;41354;52.990;6.878;2022-07-11T14:09:41;21.30;99.90
55492;DHT22;41354;52.990;6.878;2022-07-11T14:12:07;21.40;99.90
55492;DHT22;41354;52.990;6.878;2022-07-11T14:14:33;21.70;99.90
55492;DHT22;41354;52.990;6.878;2022-07-11T14:17:00;21.80;99.90
55492;DHT22;41354;52.990;6.878;2022-07-11T14:19:25;21.80;99.90
55492;DHT22;41354;52.990;6.878;2022-07-11T14:21:52;21.90;99.90
55492;DHT22;41354;52.990;6.878;2022-07-11T14:24:17;21.90;99.90
55492;DHT22;41354;52.990;6.878;2022-07-11T14:26:43;21.90;99.90
55492;DHT22;41354;52.990;6.878;2022-07-11T14:29:09;21.90;99.90
55492;DHT22;41354;52.990;6.878;2022-07-11T14:31:36;21.90;99.90
55492;DHT22;41354;52.990;6.878;2022-07-11T14:34:03;21.80;99.90
55492;DHT22;41354;52.990;6.878;2022-07-11T14:36:28;21.80;99.90
55492;DHT22;41354;52.990;6.878;2022-07-11T14:38:54;21.90;99.90
55492;DHT22;41354;52.990;6.878;2022-07-11T14:41:20;22.00;99.90
55492;DHT22;41354;52.990;6.878;2022-07-11T14:43:46;22.20;99.90
55492;DHT22;41354;52.990;6.878;2022-07-11T14:46:13;22.20;99.90
55492;DHT22;41354;52.990;6.878;2022-07-11T14:48:39;22.20;99.90
55492;DHT22;41354;52.990;6.878;2022-07-11T14:51:05;22.00;99.90
55492;DHT22;41354;52.990;6.878;2022-07-11T14:53:31;21.90;99.90
55492;DHT22;41354;52.990;6.878;2022-07-11T14:55:57;22.00;99.90
55492;DHT22;41354;52.990;6.878;2022-07-11T14:58:22;22.00;99.90
55492;DHT22;41354;52.990;6.878;2022-07-11T15:00:48;22.00;99.90
55492;DHT22;41354;52.990;6.878;2022-07-11T15:03:14;22.10;99.90
55492;DHT22;41354;52.990;6.878;2022-07-11T15:05:59;22.10;99.90
55492;DHT22;41354;52.990;6.878;2022-07-11T15:08:25;21.90;99.90
55492;DHT22;41354;52.990;6.878;2022-07-11T15:11:09;21.90;99.90
55492;DHT22;41354;52.990;6.878;2022-07-11T15:13:54;21.80;99.90
55492;DHT22;41354;52.990;6.878;2022-07-11T15:16:20;21.70;99.90
55492;DHT22;41354;52.990;6.878;2022-07-11T15:18:46;21.70;99.90
55492;DHT22;41354;52.990;6.878;2022-07-11T15:21:12;21.60;99.90
55492;DHT22;41354;52.990;6.878;2022-07-11T15:23:37;21.60;99.90
55492;DHT22;41354;52.990;6.878;2022-07-11T15:26:04;21.70;99.90
55492;DHT22;41354;52.990;6.878;2022-07-11T15:28:30;21.80;99.90
55492;DHT22;41354;52.990;6.878;2022-07-11T15:30:56;21.90;99.90
55492;DHT22;41354;52.990;6.878;2022-07-11T15:33:22;22.10;99.90
55492;DHT22;41354;52.990;6.878;2022-07-11T15:35:48;22.20;99.90
55492;DHT22;41354;52.990;6.878;2022-07-11T15:38:15;22.20;99.90
55492;DHT22;41354;52.990;6.878;2022-07-11T15:40:41;22.20;99.90
55492;DHT22;41354;52.990;6.878;2022-07-11T15:43:07;21.90;99.90
55492;DHT22;41354;52.990;6.878;2022-07-11T15:45:32;21.80;99.90
55492;DHT22;41354;52.990;6.878;2022-07-11T15:47:58;21.70;99.90
55492;DHT22;41354;52.990;6.878;2022-07-11T15:50:24;21.70;99.90
55492;DHT22;41354;52.990;6.878;2022-07-11T15:52:50;21.60;99.90
55492;DHT22;41354;52.990;6.878;2022-07-11T15:55:16;21.60;99.90
55492;DHT22;41354;52.990;6.878;2022-07-11T15:57:42;21.60;99.90
55492;DHT22;41354;52.990;6.878;2022-07-11T16:00:08;21.70;99.90
55492;DHT22;41354;52.990;6.878;2022-07-11T16:02:34;22.00;99.90
55492;DHT22;41354;52.990;6.878;2022-07-11T16:05:00;22.20;99.90
55492;DHT22;41354;52.990;6.878;2022-07-11T16:07:26;22.30;99.90
55492;DHT22;41354;52.990;6.878;2022-07-11T16:09:52;22.40;99.90